createdAt,value
2023-02-28T00:01:24.818Z,101113.19
2023-02-28T00:04:27.707Z,101120.78
2023-02-28T00:07:31.524Z,101116.38
2023-02-28T00:10:35.378Z,101126.59
2023-02-28T00:13:40.306Z,101122.22
2023-02-28T00:16:43.089Z,101131.59
2023-02-28T00:19:45.884Z,101132.13
2023-02-28T00:22:50.981Z,101142.44
2023-02-28T00:25:53.628Z,101134.59
2023-02-28T00:28:56.784Z,101140.75
2023-02-28T00:31:59.486Z,101142.31
2023-02-28T00:35:03.254Z,101149.97
2023-02-28T00:38:05.857Z,101147.47
2023-02-28T00:41:11.090Z,101142.91
2023-02-28T00:44:13.868Z,101151.59
2023-02-28T00:47:16.990Z,101149.56
2023-02-28T00:50:21.185Z,101152.44
2023-02-28T00:53:24.340Z,101146.44
2023-02-28T00:56:26.813Z,101156.97
2023-02-28T00:59:29.801Z,101151.47
2023-02-28T01:02:32.388Z,101157.53
2023-02-28T01:05:35.296Z,101155.91
2023-02-28T01:08:37.876Z,101150.31
2023-02-28T01:11:42.635Z,101158.03
2023-02-28T01:14:46.417Z,101159.84
2023-02-28T01:17:49.290Z,101153.44
2023-02-28T01:20:53.419Z,101154.16
2023-02-28T01:23:58.208Z,101154.09
2023-02-28T01:27:00.759Z,101155.78
2023-02-28T01:30:04.138Z,101156.00
2023-02-28T01:33:06.907Z,101156.84
2023-02-28T01:36:13.113Z,101156.00
2023-02-28T01:39:15.754Z,101148.19
2023-02-28T01:42:18.595Z,101155.78
2023-02-28T01:45:31.640Z,101155.91
2023-02-28T01:48:37.878Z,101160.31
2023-02-28T01:51:41.603Z,101162.06
2023-02-28T01:54:49.010Z,101158.03
2023-02-28T01:57:53.528Z,101163.00
2023-02-28T02:00:56.937Z,101147.28
2023-02-28T02:04:02.627Z,101154.28
2023-02-28T02:07:05.333Z,101155.00
2023-02-28T02:10:17.843Z,101152.31
2023-02-28T02:14:02.660Z,101148.06
2023-02-28T02:17:12.143Z,101153.44
2023-02-28T02:20:40.378Z,101152.53
2023-02-28T02:24:15.119Z,101149.31
2023-02-28T02:27:20.709Z,101148.66
2023-02-28T02:30:30.745Z,101148.47
2023-02-28T02:33:38.796Z,101142.37
2023-02-28T02:36:53.136Z,101140.00
2023-02-28T02:40:09.029Z,101142.03
2023-02-28T02:43:39.161Z,101145.56
2023-02-28T02:46:45.345Z,101149.81
2023-02-28T02:49:51.632Z,101152.19
2023-02-28T02:52:57.964Z,101140.16
2023-02-28T02:56:01.802Z,101147.78
2023-02-28T02:59:08.697Z,101149.50
2023-02-28T03:02:14.123Z,101141.53
2023-02-28T03:05:21.477Z,101142.19
2023-02-28T03:08:24.531Z,101148.41
2023-02-28T03:11:27.634Z,101141.28
2023-02-28T03:14:41.168Z,101142.84
2023-02-28T03:18:06.231Z,101152.37
2023-02-28T03:21:19.714Z,101148.97
2023-02-28T03:24:42.448Z,101154.16
2023-02-28T03:28:16.419Z,101159.03
2023-02-28T03:31:19.083Z,101166.13
2023-02-28T03:34:35.628Z,101162.84
2023-02-28T03:37:40.846Z,101162.00
2023-02-28T03:40:47.776Z,101157.22
2023-02-28T03:44:04.499Z,101153.16
2023-02-28T03:47:15.859Z,101162.91
2023-02-28T03:50:25.565Z,101155.72
2023-02-28T03:53:40.979Z,101146.81
2023-02-28T03:56:54.151Z,101159.81
2023-02-28T04:00:07.988Z,101162.94
2023-02-28T04:03:15.477Z,101156.09
2023-02-28T04:06:23.472Z,101155.87
2023-02-28T04:09:26.087Z,101149.78
2023-02-28T04:12:29.023Z,101159.28
2023-02-28T04:15:32.982Z,101152.22
2023-02-28T04:18:35.922Z,101142.41
2023-02-28T04:21:46.653Z,101143.31
2023-02-28T04:24:49.722Z,101140.62
2023-02-28T04:27:52.263Z,101145.78
2023-02-28T04:31:05.670Z,101136.31
2023-02-28T04:34:08.949Z,101142.59
2023-02-28T04:37:13.985Z,101135.69
2023-02-28T04:40:17.342Z,101132.97
2023-02-28T04:43:20.219Z,101138.87
2023-02-28T04:46:23.080Z,101136.53
2023-02-28T04:49:25.924Z,101140.69
2023-02-28T04:52:29.009Z,101136.94
2023-02-28T04:55:31.916Z,101131.66
2023-02-28T04:58:35.489Z,101136.25
2023-02-28T05:01:38.440Z,101138.22
2023-02-28T05:04:41.152Z,101131.84
2023-02-28T05:07:44.054Z,101136.09
2023-02-28T05:10:46.617Z,101133.19
2023-02-28T05:13:49.950Z,101131.28
2023-02-28T05:16:52.561Z,101133.34
2023-02-28T05:20:01.078Z,101135.03
2023-02-28T05:23:12.102Z,101140.91
2023-02-28T05:26:14.976Z,101141.19
2023-02-28T05:29:17.556Z,101141.19
2023-02-28T05:32:20.519Z,101153.66
2023-02-28T05:35:23.199Z,101148.56
2023-02-28T05:38:26.287Z,101154.44
2023-02-28T05:41:29.389Z,101150.91
2023-02-28T05:44:32.495Z,101154.94
2023-02-28T05:47:35.628Z,101156.47
2023-02-28T05:50:38.946Z,101154.66
2023-02-28T05:53:41.572Z,101162.72
2023-02-28T05:56:46.598Z,101169.72
2023-02-28T05:59:49.154Z,101157.34
2023-02-28T06:02:54.337Z,101167.03
2023-02-28T06:05:57.130Z,101160.59
2023-02-28T06:09:00.153Z,101170.78
2023-02-28T06:12:06.448Z,101173.13
2023-02-28T06:15:16.921Z,101168.09
2023-02-28T06:18:19.717Z,101180.97
2023-02-28T06:21:22.544Z,101177.66
2023-02-28T06:24:29.046Z,101181.84
2023-02-28T06:27:33.024Z,101183.88
2023-02-28T06:30:38.699Z,101185.72
2023-02-28T06:33:42.320Z,101189.47
2023-02-28T06:36:45.205Z,101189.63
2023-02-28T06:39:48.194Z,101190.03
2023-02-28T06:42:51.845Z,101197.97
2023-02-28T06:45:59.394Z,101197.88
2023-02-28T06:49:02.454Z,101191.16
2023-02-28T06:52:05.423Z,101197.59
2023-02-28T06:55:09.147Z,101193.19
2023-02-28T06:58:19.941Z,101194.88
2023-02-28T07:01:24.668Z,101206.78
2023-02-28T07:04:27.565Z,101197.88
2023-02-28T07:07:30.596Z,101204.75
2023-02-28T07:10:34.308Z,101199.72
2023-02-28T07:13:37.584Z,101199.44
2023-02-28T07:16:40.243Z,101201.12
2023-02-28T07:19:43.249Z,101210.81
2023-02-28T07:22:46.016Z,101209.19
2023-02-28T07:25:50.018Z,101217.47
2023-02-28T07:28:52.504Z,101216.53
2023-02-28T07:31:55.510Z,101215.84
2023-02-28T07:34:58.081Z,101221.94
2023-02-28T07:38:01.048Z,101217.13
2023-02-28T07:41:05.350Z,101223.63
2023-02-28T07:44:08.354Z,101218.44
2023-02-28T07:47:11.232Z,101230.97
2023-02-28T07:50:17.244Z,101226.69
2023-02-28T07:53:19.955Z,101224.66
2023-02-28T07:56:22.838Z,101221.78
2023-02-28T07:59:25.585Z,101229.25
2023-02-28T08:02:28.705Z,101230.09
2023-02-28T08:05:31.936Z,101231.31
2023-02-28T08:08:34.846Z,101230.50
2023-02-28T08:11:37.832Z,101230.97
2023-02-28T08:14:40.805Z,101235.44
2023-02-28T08:17:43.767Z,101233.78
2023-02-28T08:20:46.464Z,101234.97
2023-02-28T08:23:50.937Z,101237.75
2023-02-28T08:26:53.456Z,101237.34
2023-02-28T08:29:56.447Z,101225.69
2023-02-28T08:32:59.340Z,101228.66
2023-02-28T08:36:02.367Z,101233.41
2023-02-28T08:39:05.125Z,101218.91
2023-02-28T08:42:08.313Z,101226.19
2023-02-28T08:45:11.684Z,101225.47
2023-02-28T08:48:14.628Z,101231.91
2023-02-28T08:51:23.253Z,101222.41
2023-02-28T08:54:26.336Z,101225.19
2023-02-28T08:57:28.898Z,101231.28
2023-02-28T09:00:31.817Z,101215.38
2023-02-28T09:03:34.526Z,101214.69
2023-02-28T09:06:37.416Z,101220.44
2023-02-28T09:09:54.530Z,101214.91
2023-02-28T09:12:58.123Z,101222.75
2023-02-28T09:16:02.410Z,101220.63
2023-02-28T09:19:05.704Z,101215.94
2023-02-28T09:22:08.790Z,101224.31
2023-02-28T09:25:11.593Z,101221.97
2023-02-28T09:28:16.715Z,101222.44
2023-02-28T09:31:25.464Z,101222.53
2023-02-28T09:34:31.438Z,101230.66
2023-02-28T09:37:34.373Z,101226.37
2023-02-28T09:40:51.135Z,101231.84
2023-02-28T09:43:57.025Z,101229.97
2023-02-28T09:47:18.254Z,101223.00
2023-02-28T09:50:27.408Z,101221.28
2023-02-28T09:53:35.209Z,101218.41
2023-02-28T09:56:41.053Z,101221.59
2023-02-28T10:00:02.856Z,101221.22
2023-02-28T10:03:39.869Z,101221.97
2023-02-28T10:06:47.303Z,101218.44
2023-02-28T10:09:54.513Z,101210.78
2023-02-28T10:13:00.524Z,101216.16
2023-02-28T10:16:07.718Z,101211.41
2023-02-28T10:19:17.095Z,101213.56
2023-02-28T10:22:22.560Z,101200.69
2023-02-28T10:25:28.168Z,101208.25
2023-02-28T10:28:32.032Z,101205.16
2023-02-28T10:31:34.904Z,101189.59
2023-02-28T10:34:38.102Z,101195.00
2023-02-28T10:37:46.789Z,101193.25
2023-02-28T10:40:49.606Z,101185.72
2023-02-28T10:43:52.664Z,101191.81
2023-02-28T10:46:55.311Z,101187.66
2023-02-28T10:49:58.206Z,101180.09
2023-02-28T10:53:16.046Z,101181.94
2023-02-28T10:56:22.353Z,101178.09
2023-02-28T10:59:30.843Z,101172.81
2023-02-28T11:02:37.193Z,101168.87
2023-02-28T11:05:39.740Z,101169.25
2023-02-28T11:08:48.290Z,101170.41
2023-02-28T11:11:52.004Z,101169.09
2023-02-28T11:15:21.717Z,101165.81
2023-02-28T11:18:30.680Z,101165.97
2023-02-28T11:21:35.912Z,101165.22
2023-02-28T11:24:43.444Z,101173.03
2023-02-28T11:27:54.092Z,101159.91
2023-02-28T11:31:12.104Z,101158.09
2023-02-28T11:34:27.027Z,101141.03
2023-02-28T11:37:30.502Z,101144.34
2023-02-28T11:40:39.676Z,101142.84
2023-02-28T11:43:45.086Z,101150.78
2023-02-28T11:47:08.088Z,101143.62
2023-02-28T11:50:32.898Z,101147.66
2023-02-28T11:53:47.751Z,101142.06
2023-02-28T11:56:58.379Z,101143.34
2023-02-28T12:00:13.510Z,101132.88
2023-02-28T12:03:40.368Z,101135.13
2023-02-28T12:07:04.972Z,101127.97
2023-02-28T12:10:09.222Z,101123.00
2023-02-28T12:13:21.752Z,101120.03
2023-02-28T12:16:46.843Z,101133.94
2023-02-28T12:20:04.079Z,101131.66
2023-02-28T12:24:14.957Z,101118.66
2023-02-28T12:27:20.609Z,101125.37
2023-02-28T12:30:28.722Z,101116.75
2023-02-28T12:33:35.898Z,101107.69
2023-02-28T12:36:38.924Z,101104.69
2023-02-28T12:39:50.734Z,101103.75
2023-02-28T12:42:59.902Z,101106.06
2023-02-28T12:46:16.085Z,101096.88
2023-02-28T12:49:21.727Z,101099.81
2023-02-28T12:52:41.772Z,101096.19
2023-02-28T12:55:50.646Z,101094.00
2023-02-28T12:58:59.848Z,101095.34
2023-02-28T13:02:15.549Z,101090.53
2023-02-28T13:05:38.790Z,101093.59
2023-02-28T13:09:13.356Z,101090.94
2023-02-28T13:12:17.692Z,101090.91
2023-02-28T13:15:25.285Z,101084.56
2023-02-28T13:18:40.579Z,101080.97
2023-02-28T13:21:45.623Z,101078.44
2023-02-28T13:24:53.295Z,101077.34
2023-02-28T13:28:02.002Z,101081.84
2023-02-28T13:31:06.886Z,101081.13
2023-02-28T13:34:15.985Z,101082.06
2023-02-28T13:37:18.833Z,101082.19
2023-02-28T13:40:38.841Z,101072.31
2023-02-28T13:44:01.068Z,101071.00
2023-02-28T13:47:03.586Z,101056.03
2023-02-28T13:50:27.687Z,101059.03
2023-02-28T13:54:05.288Z,101059.47
2023-02-28T13:57:23.502Z,101063.19
2023-02-28T14:00:46.870Z,101054.09
2023-02-28T14:04:21.765Z,101053.53
2023-02-28T14:07:27.367Z,101043.25
2023-02-28T14:10:38.376Z,101044.16
2023-02-28T14:13:45.832Z,101042.56
2023-02-28T14:16:51.209Z,101042.06
2023-02-28T14:19:54.030Z,101040.03
2023-02-28T14:23:10.570Z,101038.66
2023-02-28T14:26:47.058Z,101042.34
2023-02-28T14:30:11.938Z,101042.84
2023-02-28T14:33:30.188Z,101041.09
2023-02-28T14:36:35.620Z,101040.37
2023-02-28T14:39:42.533Z,101040.97
2023-02-28T14:42:56.651Z,101039.06
2023-02-28T14:46:04.291Z,101039.72
2023-02-28T14:49:08.489Z,101044.38
2023-02-28T14:52:11.037Z,101045.47
2023-02-28T14:55:18.551Z,101031.53
2023-02-28T14:58:30.025Z,101036.38
2023-02-28T15:01:34.565Z,101042.84
2023-02-28T15:04:37.202Z,101039.91
2023-02-28T15:07:40.618Z,101044.44
2023-02-28T15:11:12.742Z,101046.75
2023-02-28T15:14:21.500Z,101047.19
2023-02-28T15:17:25.630Z,101049.00
2023-02-28T15:20:28.727Z,101052.41
2023-02-28T15:23:31.667Z,101058.62
2023-02-28T15:26:38.591Z,101052.81
2023-02-28T15:29:46.979Z,101056.31
2023-02-28T15:33:09.331Z,101055.78
2023-02-28T15:36:17.007Z,101052.81
2023-02-28T15:39:27.998Z,101049.00
2023-02-28T15:42:30.906Z,101054.84
2023-02-28T15:45:45.403Z,101047.63
2023-02-28T15:48:57.771Z,101045.72
2023-02-28T15:52:01.667Z,101047.41
2023-02-28T15:55:19.104Z,101037.16
2023-02-28T15:58:22.920Z,101036.44
2023-02-28T16:01:34.747Z,101033.91
2023-02-28T16:04:38.508Z,101039.38
2023-02-28T16:07:43.786Z,101043.72
2023-02-28T16:10:46.909Z,101046.84
2023-02-28T16:13:50.184Z,101047.91
2023-02-28T16:16:55.534Z,101051.84
2023-02-28T16:19:58.982Z,101054.78
2023-02-28T16:23:03.732Z,101046.00
2023-02-28T16:26:07.420Z,101050.63
2023-02-28T16:29:15.442Z,101048.75
2023-02-28T16:32:18.286Z,101056.22
2023-02-28T16:35:22.016Z,101059.81
2023-02-28T16:38:25.947Z,101053.06
2023-02-28T16:41:29.584Z,101058.75
2023-02-28T16:44:36.347Z,101066.91
2023-02-28T16:47:39.461Z,101059.12
2023-02-28T16:50:43.261Z,101072.47
2023-02-28T16:53:46.411Z,101068.69
2023-02-28T16:56:49.811Z,101076.06
2023-02-28T16:59:52.765Z,101081.00
2023-02-28T17:02:56.043Z,101072.38
2023-02-28T17:05:58.918Z,101086.81
2023-02-28T17:09:02.076Z,101083.31
2023-02-28T17:12:05.397Z,101088.69
2023-02-28T17:15:08.966Z,101091.53
2023-02-28T17:18:16.670Z,101094.81
2023-02-28T17:21:19.257Z,101085.44
2023-02-28T17:24:30.996Z,101087.75
2023-02-28T17:27:34.158Z,101089.75
2023-02-28T17:30:37.266Z,101089.66
2023-02-28T17:33:39.921Z,101085.63
2023-02-28T17:36:44.822Z,101093.97
2023-02-28T17:39:47.704Z,101091.34
2023-02-28T17:42:53.301Z,101093.78
2023-02-28T17:45:57.825Z,101083.91
2023-02-28T17:49:00.993Z,101091.94
2023-02-28T17:52:04.178Z,101086.66
2023-02-28T17:55:07.402Z,101083.91
2023-02-28T17:58:12.998Z,101089.03
2023-02-28T18:01:16.541Z,101093.16
2023-02-28T18:04:19.790Z,101099.03
2023-02-28T18:07:24.631Z,101094.69
2023-02-28T18:10:28.959Z,101097.31
2023-02-28T18:13:32.087Z,101094.66
2023-02-28T18:16:39.151Z,101107.59
2023-02-28T18:19:41.894Z,101103.16
2023-02-28T18:22:45.382Z,101098.63
2023-02-28T18:25:48.360Z,101103.56
2023-02-28T18:28:51.513Z,101101.16
2023-02-28T18:31:56.158Z,101097.59
2023-02-28T18:34:59.343Z,101107.78
2023-02-28T18:38:13.541Z,101102.31
2023-02-28T18:41:17.548Z,101108.44
2023-02-28T18:44:21.461Z,101104.31
2023-02-28T18:47:24.316Z,101110.31
2023-02-28T18:50:29.638Z,101109.19
2023-02-28T18:53:35.355Z,101114.53
2023-02-28T18:56:38.264Z,101106.53
2023-02-28T18:59:43.944Z,101106.94
2023-02-28T19:02:46.863Z,101107.78
2023-02-28T19:05:54.725Z,101105.69
2023-02-28T19:09:00.109Z,101106.34
2023-02-28T19:12:04.649Z,101096.00
2023-02-28T19:15:08.129Z,101106.19
2023-02-28T19:18:11.257Z,101100.06
2023-02-28T19:21:16.173Z,101107.69
2023-02-28T19:24:20.429Z,101103.91
2023-02-28T19:27:23.194Z,101101.84
2023-02-28T19:30:26.315Z,101105.31
2023-02-28T19:33:30.790Z,101105.78
2023-02-28T19:36:34.312Z,101093.75
2023-02-28T19:39:43.510Z,101092.72
2023-02-28T19:42:47.052Z,101100.06
2023-02-28T19:45:49.969Z,101099.22
2023-02-28T19:48:54.308Z,101106.81
2023-02-28T19:51:57.219Z,101102.88
2023-02-28T19:55:04.114Z,101105.78
2023-02-28T19:58:07.033Z,101103.72
2023-02-28T20:01:18.048Z,101109.94
2023-02-28T20:04:21.177Z,101111.44
2023-02-28T20:07:24.246Z,101102.31
2023-02-28T20:10:29.153Z,101103.81
2023-02-28T20:13:32.415Z,101107.31
2023-02-28T20:16:35.511Z,101106.47
2023-02-28T20:19:38.340Z,101105.81
2023-02-28T20:22:41.560Z,101108.63
2023-02-28T20:25:44.440Z,101110.44
2023-02-28T20:28:48.152Z,101106.00
2023-02-28T20:31:51.101Z,101109.97
2023-02-28T20:34:54.501Z,101109.78
2023-02-28T20:37:57.324Z,101101.31
2023-02-28T20:41:01.213Z,101103.25
2023-02-28T20:44:04.174Z,101104.69
2023-02-28T20:47:07.153Z,101104.69
2023-02-28T20:50:11.372Z,101102.06
2023-02-28T20:53:17.575Z,101100.59
2023-02-28T20:56:21.346Z,101096.78
2023-02-28T20:59:24.504Z,101101.22
2023-02-28T21:02:28.511Z,101099.84
2023-02-28T21:05:31.605Z,101096.22
2023-02-28T21:08:35.375Z,101091.00
2023-02-28T21:11:39.076Z,101098.91
2023-02-28T21:14:41.699Z,101084.53
2023-02-28T21:17:46.564Z,101084.91
2023-02-28T21:20:49.861Z,101087.63
2023-02-28T21:23:52.811Z,101085.47
2023-02-28T21:26:56.979Z,101085.28
2023-02-28T21:30:06.448Z,101093.00
2023-02-28T21:33:12.434Z,101085.19
2023-02-28T21:36:18.610Z,101083.59
2023-02-28T21:39:25.907Z,101078.31
2023-02-28T21:42:28.934Z,101087.16
2023-02-28T21:45:31.520Z,101081.59
2023-02-28T21:48:34.564Z,101087.53
2023-02-28T21:51:38.965Z,101094.59
2023-02-28T21:54:42.603Z,101090.06
2023-02-28T21:57:45.295Z,101088.37
2023-02-28T22:00:50.612Z,101081.31
2023-02-28T22:03:53.376Z,101074.56
2023-02-28T22:06:57.468Z,101078.50
2023-02-28T22:10:00.510Z,101085.47
2023-02-28T22:13:04.373Z,101084.34
2023-02-28T22:16:13.756Z,101078.88
2023-02-28T22:19:16.539Z,101078.69
2023-02-28T22:22:19.356Z,101089.59
2023-02-28T22:25:22.032Z,101094.13
2023-02-28T22:28:25.539Z,101101.47
2023-02-28T22:31:30.529Z,101091.59
2023-02-28T22:34:33.406Z,101093.94
2023-02-28T22:37:36.055Z,101092.81
2023-02-28T22:40:39.560Z,101084.81
2023-02-28T22:43:43.216Z,101091.09
2023-02-28T22:46:46.250Z,101096.38
2023-02-28T22:49:49.012Z,101099.94
2023-02-28T22:52:52.137Z,101090.84
2023-02-28T22:55:56.309Z,101098.84
2023-02-28T22:59:00.695Z,101104.87
2023-02-28T23:02:03.602Z,101098.06
2023-02-28T23:05:06.720Z,101098.47
2023-02-28T23:08:12.285Z,101095.09
2023-02-28T23:11:21.025Z,101105.72
2023-02-28T23:14:23.853Z,101097.53
2023-02-28T23:17:26.838Z,101097.44
2023-02-28T23:20:29.840Z,101094.25
2023-02-28T23:23:34.048Z,101096.12
2023-02-28T23:26:39.409Z,101098.19
2023-02-28T23:29:42.360Z,101094.91
2023-02-28T23:32:45.109Z,101088.50
2023-02-28T23:35:48.060Z,101087.56
2023-02-28T23:38:51.902Z,101083.41
2023-02-28T23:41:55.700Z,101079.75
2023-02-28T23:44:58.647Z,101077.19
2023-02-28T23:48:01.824Z,101071.47
2023-02-28T23:51:10.707Z,101072.84
2023-02-28T23:54:13.656Z,101074.84
2023-02-28T23:57:16.317Z,101075.31
